Freeport, Kansas
Current Conditions -  °F | °C
As of 9:53 PM on Friday 28 Nov 2014 (Local Time) from KICT Reporting Station
Broken Clouds Broken Clouds  
Wind Chill: 50°   Ceiling: 20000
Heat Index: 50°   Visibility: 10mi
Dew Point: 40°   Wind: 10mph
Humidity: 68%   Direction: 190°S
Pressure: 29.77"   Gusts: NA
Location:  37.2°N, 97.86°W
Report Text: KICT 290353Z 19009KT 10SM BKN200 10/04 A2977 RMK AO2 SLP080 T01000044
Loading
Personal Weather Stations






























Interactive Weather Map New forecast layout! Learn more

10-Day Weather Forecast

Advertisements
Track Severe Weather on mobile